createdAt,value
2023-05-25T00:21:24.863Z,1010.3
2023-05-25T00:31:31.069Z,1010.2
2023-05-25T00:41:37.270Z,1010.2
2023-05-25T00:51:43.513Z,1010.1
2023-05-25T01:01:48.688Z,1010.2
2023-05-25T01:11:54.881Z,1010.2
2023-05-25T01:22:01.099Z,1010.1
2023-05-25T01:32:07.289Z,1010.2
2023-05-25T01:42:13.491Z,1010.2
2023-05-25T01:52:19.703Z,1010.2
2023-05-25T02:12:32.102Z,1010.2
2023-05-25T02:22:38.304Z,1010.2
2023-05-25T02:32:44.495Z,1010.1
2023-05-25T02:42:50.691Z,1010.1
2023-05-25T02:52:56.949Z,1010.1
2023-05-25T03:13:09.237Z,1010.1
2023-05-25T03:23:14.410Z,1010.2
2023-05-25T03:33:20.598Z,1010.3
2023-05-25T03:43:26.693Z,1010.3
2023-05-25T03:53:32.912Z,1010.4
2023-05-25T04:03:38.988Z,1010.4
2023-05-25T04:13:45.139Z,1010.6
2023-05-25T04:23:51.371Z,1010.6
2023-05-25T04:54:09.729Z,1010.9
2023-05-25T05:04:15.870Z,1011
2023-05-25T05:14:22.036Z,1011.1
2023-05-25T05:24:28.167Z,1011.2
2023-05-25T05:34:33.380Z,1011.3
2023-05-25T05:44:39.566Z,1011.5
2023-05-25T05:54:45.627Z,1011.5
2023-05-25T06:04:51.767Z,1011.6
2023-05-25T06:25:04.093Z,1011.7
2023-05-25T06:35:10.208Z,1011.7
2023-05-25T06:45:16.348Z,1011.7
2023-05-25T06:55:22.497Z,1011.7
2023-05-25T07:15:34.833Z,1011.7
2023-05-25T07:25:40.947Z,1011.6
2023-05-25T07:35:47.105Z,1011.7
2023-05-25T07:45:52.248Z,1011.7
2023-05-25T07:55:58.411Z,1011.7
2023-05-25T08:06:04.546Z,1011.6
2023-05-25T08:16:10.756Z,1011.6
2023-05-25T08:26:16.953Z,1011.7
2023-05-25T08:36:23.041Z,1011.6
2023-05-25T08:46:29.345Z,1011.5
2023-05-25T08:56:35.279Z,1011.6
2023-05-25T09:06:41.425Z,1011.7
2023-05-25T09:16:47.561Z,1011.7
2023-05-25T09:26:53.792Z,1011.6
2023-05-25T09:36:59.872Z,1011.8
2023-05-25T09:47:06.194Z,1011.8
2023-05-25T09:57:12.492Z,1011.7
2023-05-25T10:07:17.753Z,1011.7
2023-05-25T10:17:22.857Z,1011.7
2023-05-25T10:37:35.169Z,1011.6
2023-05-25T10:47:41.258Z,1011.6
2023-05-25T10:57:47.280Z,1011.4
2023-05-25T11:28:05.839Z,1011.3
2023-05-25T11:38:11.978Z,1011.1
2023-05-25T11:58:24.108Z,1011.1
2023-05-25T12:08:30.248Z,1011
2023-05-25T12:18:36.487Z,1010.9
2023-05-25T12:28:42.591Z,1010.8
2023-05-25T12:38:47.726Z,1010.7
2023-05-25T12:48:53.132Z,1010.6
2023-05-25T12:58:59.123Z,1010.5
2023-05-25T13:09:05.346Z,1010.5
2023-05-25T13:19:11.461Z,1010.5
2023-05-25T13:29:17.479Z,1010.4
2023-05-25T13:49:29.814Z,1010.4
2023-05-25T13:59:35.985Z,1010.3
2023-05-25T14:19:48.206Z,1010.3
2023-05-25T14:29:54.376Z,1010.3
2023-05-25T14:40:00.564Z,1010.2
2023-05-25T14:50:06.633Z,1010.1
2023-05-25T15:00:11.814Z,1010.2
2023-05-25T15:20:24.115Z,1010.2
2023-05-25T15:30:30.249Z,1010.3
2023-05-25T15:40:36.406Z,1010.2
2023-05-25T16:00:48.750Z,1010.1
2023-05-25T16:10:54.992Z,1010.2
2023-05-25T16:21:01.013Z,1010.1
2023-05-25T16:41:13.391Z,1010.1
2023-05-25T17:01:25.579Z,1010
2023-05-25T17:11:30.814Z,1010
2023-05-25T17:21:36.924Z,1010.1
2023-05-25T17:31:43.024Z,1010.1
2023-05-25T17:41:49.173Z,1010.1
2023-05-25T17:51:55.304Z,1010.2
2023-05-25T18:02:01.532Z,1010.2
2023-05-25T18:22:13.764Z,1010.3
2023-05-25T18:32:19.882Z,1010.3
2023-05-25T18:42:26.034Z,1010.4
2023-05-25T19:22:50.719Z,1010.8
2023-05-25T19:32:55.872Z,1010.9
2023-05-25T19:43:02.075Z,1011
2023-05-25T19:53:08.274Z,1011.2
2023-05-25T20:03:14.657Z,1011.3
2023-05-25T20:23:27.048Z,1011.4
2023-05-25T20:33:33.217Z,1011.5
2023-05-25T20:43:39.433Z,1011.5
2023-05-25T20:53:45.606Z,1011.7
2023-05-25T21:03:51.813Z,1011.8
2023-05-25T21:13:58.019Z,1011.8
2023-05-25T21:34:10.576Z,1012
2023-05-25T21:44:15.799Z,1012.1
2023-05-25T21:54:21.991Z,1012.1
2023-05-25T22:04:28.330Z,1012.2
2023-05-25T22:14:34.529Z,1012.2
2023-05-25T22:24:40.727Z,1012.2
2023-05-25T22:34:46.943Z,1012.3
2023-05-25T22:44:53.121Z,1012.4
2023-05-25T22:54:59.314Z,1012.4
2023-05-25T23:15:10.769Z,1012.3
2023-05-25T23:25:15.960Z,1012.3
2023-05-25T23:35:22.165Z,1012.4
2023-05-25T23:45:28.366Z,1012.4
2023-05-25T23:55:34.561Z,1012.4
